Logo AVAMET
Benvolgut visitant, si us plau, ingressa Recuperar contrasenya
AVAMET paisatges

Vilafamés

Dades diàries. Acumulats / Últims 30 dies disponibles

Data Temperatura (°C) Humitat rel. (%) Pressió rel. (hPa) Vent (km/h) Precipitació
Mínima Mitjana Màxima Amplitud
tèrmica
Mínima Mitjana Màxima Mínima Mitjana Màxima Predom. Mitjana Ràfega
màxima
Total
(mm)
Índex-n
Mínima Mitjana Màxima Mínima Mitjana Màxima n
0 a 1
P0 max
mm 5'
Dades mensuals acumulades fins l'últim dia disponible
10/2020 7,6 12,2 16,8 16,9 17,9 21,9 29,0 21,4 27 55 96 984 1.009 1.018   9,7 88,5 6,2
Dades anuals acumulades fins l'últim dia disponible
2020 1,8 13,5 23,4 17,8 7,8 22,6 35,1 33,3 17 66 98 984 1.011 1.028   6,0 119,1 641,4
Últims 30 dies disponibles
18-10-2020 10,2     15,3     20,5 10,3 42 61 87 1.013 1.015 1.016 SE 2,9 24,1 0,0
17-10-2020 7,6     12,9     18,3 10,7 44 63 79 1.010 1.011 1.013 ESE 3,7 32,2 0,0
16-10-2020 10,2     13,1     17,9 7,7 32 46 66 1.009 1.011 1.013 SSE 6,6 43,5 0,0
15-10-2020 10,9     14,3     18,6 7,7 30 41 53 1.007 1.008 1.011 NW 19,0 56,3 0,0
14-10-2020 12,6     15,9     18,7 6,1 32 48 60 1.002 1.004 1.007 NNW 14,2 54,7 0,0
13-10-2020 11,1     17,5     23,4 12,3 39 55 69 1.004 1.008 1.012 SSE 7,6 35,4 0,0
12-10-2020 12,7     15,7     20,3 7,6 34 47 59 1.012 1.014 1.015 NW 24,5 88,5 0,0
11-10-2020 12,8     15,9     19,8 7,0 31 43 60 1.013 1.015 1.016 NW 20,6 88,5 0,0
10-10-2020 15,2     18,8     23,3 8,1 55 77 96 1.013 1.015 1.017 W 3,4 32,2 0,0
09-10-2020 14,9     19,4     23,8 8,9 69 83 95 1.014 1.015 1.017 WSW 4,3 22,5 0,0
08-10-2020 14,3     19,0     23,3 9,0 63 75 86 1.015 1.017 1.018 SSE 5,5 37,0 0,0
07-10-2020 16,8     22,3     29,0 12,2 35 49 64 1.013 1.014 1.017 ESE 3,7 27,4 0,0
06-10-2020 10,7     16,6     24,8 14,1 32 51 66 1.013 1.014 1.015 ESE 3,5 32,2 0,0
05-10-2020 11,4     16,1     20,6 9,2 34 51 67 1.005 1.009 1.015 SE 5,6 35,4 0,0
04-10-2020 10,2     16,7     22,6 12,4 27 43 61 999 1.001 1.005 WSW 14,3 59,5 0,0
03-10-2020 8,8     16,2     21,7 12,9 30 42 65 992 997 1.003 WSW 8,5 40,2 0,0
02-10-2020 13,1     17,3     21,4 8,3 40 53 85 984 989 998 WSW 22,5 69,2 5,8 0,38 1,80
01-10-2020 15,6     20,3     25,9 10,3 SSE 4,0 29,0 0,4
29-09-2020 11,9     17,4     23,1 11,2 48 61 82 1.010 1.012 1.014 SE 3,9 25,7 0,0
28-09-2020 13,9     17,9     23,1 9,2 31 44 61 1.008 1.009 1.013 SSE 6,3 32,2 0,0
27-09-2020 15,2     18,6     23,1 7,9 19 40 61 1.000 1.004 1.008 NNW 13,4 78,9 0,0
26-09-2020 14,4     18,2     23,8 9,4 33 42 49 1.003 1.009 1.013 WNW 14,6 56,3 0,0
25-09-2020 15,4     18,9     22,9 7,5 26 37 51 1.005 1.008 1.013 NW 20,3 78,9 0,0
24-09-2020 17,1     22,2     26,5 9,4 42 60 84 1.004 1.005 1.006 WSW 12,4 62,8 0,0
23-09-2020 17,1     21,4     28,3 11,2 43 66 90 1.004 1.005 1.007 ESE 3,7 37,0 0,0
22-09-2020 17,2     20,4     24,7 7,5 61 73 87 1.006 1.008 1.010 ESE 4,0 33,8 0,0
21-09-2020 19,4     21,7     26,3 6,9 49 66 80 1.008 1.009 1.010 W 5,1 53,1 0,0
20-09-2020 19,7     22,9     26,7 7,0 42 52 75 1.008 1.009 1.009 SE 5,1 33,8 0,0
19-09-2020 17,4     22,6     28,6 11,2 31 60 95 1.005 1.007 1.010 WSW 15,6 67,6 0,0
18-09-2020 18,1     20,8     24,5 6,4 67 79 91 1.008 1.009 1.010 ESE 3,9 25,7 5,0
Últims 13 mesos disponibles
09/2020 11,9 17,0 19,7 21,3 22,9 26,3 30,4 18,5 37 61 79 1.004 1.011 1.017 SE 6,5 78,9 18,6
08/2020 15,2 20,5 23,4 25,1 22,7 29,8 33,8 18,6 46 64 79 998 1.007 1.013 SE 5,4 56,3 12,0
07/2020 17,9 19,8 22,5 24,7 26,7 29,6 35,1 17,2 38 66 83 1.005 1.010 1.014 SE 5,2 40,2 2,0
06/2020 13,6 16,7 19,9 21,1 20,5 25,8 30,3 16,7 44 66 85 997 1.008 1.014 SE 5,9 56,3 44,0
05/2020 11,2 14,8 18,8 19,6 15,5 24,5 30,5 19,3 45 64 85 998 1.010 1.021 ESE 5,5 67,6 50,2
04/2020 6,3 10,4 15,4 13,8 12,9 18,3 25,3 19,0 45 77 94 998 1.010 1.020 ESE 5,1 59,5 152,6
03/2020 3,6 8,7 13,9 12,4 8,6 16,2 24,6 21,0 43 69 97 998 1.011 1.021 ESE 8,5 119,1 160,8
02/2020 3,9 8,7 13,8 13,4 13,2 18,9 25,2 21,3 32 63 92 1.006 1.019 1.026 WSW 4,8 64,4 1,8
01/2020 1,8 5,6 10,9 9,5 7,8 14,3 19,6 17,8 56 74 97 1.013 1.019 1.026 ESE 5,1 90,1 183,2
12/2019 1,9 8,8 16,3 12,3 9,8 16,2 23,4 21,5 41 68 94 994 1.012 1.027 ESE 7,6 98,2 118,2
11/2019 5,2 9,6 16,6 13,4 12,2 17,2 25,2 20,0 41 53 75 990 1.002 1.010 NW 13,3 91,7 4,0
10/2019 8,9 14,4 18,7 18,4 13,8 22,9 29,1 20,2 45 68 88 1.000 1.010 1.015 SE 5,2 74,0 22,0
09/2019 13,1 17,7 21,0 21,6 19,2 26,1 30,7 17,6 47 69 86 1.003 1.011 1.020 E 6,1 69,2 58,2
Tots els anys disponibles
2019 1,9 12,6 25,2 16,9 8,8 21,6 37,7 35,8 21 60 94 986 1.010 1.028 ESE 7,7 122,3 385,0
2018 0,0 12,7 26,1 16,8 5,3 21,2 34,6 34,6 ESE 7,1 104,6 672,2
2017 -0,3 12,3 23,6 16,8 6,3 21,7 36,0 36,3 ESE 7,0 122,3 250,8
2016
2014
Temperatura (°C)
Humitat relativa (%)
Velocitat del vent i ràfega màxima (km/h)
Direcció del vent (°)
Pressió (hPa)
Precipitació (mm)
Nota sobre les dades: s'avisa a l'usuari de la provisionalitat i no oficialitat d'aquestes dades
Logo AVAMET blanc
Web allotjada a Sollutia
Llicència de Creative CommonsLa web d'AVAMET i els seus continguts estan subjectes a una llicència de
Reconeixement - No Comercial - Compartir igual
Últimes estacions: Alfondeguilla (Soci), Santa Magdalena de Polpís (Soci),  Benafigos (Ajuntament Soci), Carlet - Ajuntament (Inforatge), Montroi (Inforatge), Bronchales (Limítrofe-Terol/Aj. Soci), Sueca - Muntanyeta dels Sants (Inforatge), Vilamarxant - Ajuntament (Aj. Soci/Inforatge), Monteagudo del Castillo - El Portero (Limítrofe-Terol/Soci), Calzadilla de los Barros (Limítrofe-Badajoz/Soci) - - -